METAR Data
IDs: Format: Raw Decoded Include TAF

Data at: 2353 UTC 24 Apr 2019

PASL 242256Z AUTO VRB04KT 10SM CLR 06/M08 A3008 RMK AO2 SLP183 T00561078
PASL 242156Z AUTO VRB04KT 10SM CLR 04/M09 A3008 RMK AO2 SLP185 T00441089
PASL 241956Z AUTO 00000KT 10SM CLR 03/M09 A3009 RMK AO2 SLP186 T00281094
PASL 241756Z AUTO 00000KT 10SM CLR M03/M11 A3009 RMK AO2 SLP188 T10331111 11033 21111 53005 FZRANO
PASL 241656Z AUTO VRB03KT 10SM CLR M07/M13 A3009 RMK AO2 SLP186 T10721128 FZRANO
PASL 241556Z AUTO VRB04KT 10SM CLR M10/M14 A3008 RMK AO2 SLP183 T11001139 FZRANO
PASL 241456Z AUTO 00000KT 10SM CLR M11/M14 A3008 RMK AO2 SLP182 T11061139 53007 FZRANO
PASL 241356Z AUTO VRB03KT 10SM CLR M10/M13 A3007 RMK AO2 SLP178 T11001133 FZRANO
PASL 241256Z AUTO 00000KT 10SM CLR M09/M13 A3006 RMK AO2 SLP175 T10941128 FZRANO
PASL 241156Z AUTO VRB03KT 10SM CLR M08/M12 A3005 RMK AO2 SLP174 T10831122 11017 21083 51014 FZRANO
PASL 241056Z AUTO 02003KT 10SM CLR M08/M12 A3004 RMK AO2 SLP171 T10831117 FZRANO
PASL 240956Z AUTO 00000KT 10SM CLR M07/M11 A3003 RMK AO2 SLP166 T10721111 FZRANO
PASL 240856Z AUTO 00000KT 10SM CLR M07/M09 A3001 RMK AO2 SLP160 T10671094 400171117 51016 FZRANO
PASL 240756Z AUTO 00000KT 10SM CLR M05/M10 A3000 RMK AO2 SLP157 T10501100 FZRANO
PASL 240656Z AUTO 00000KT 10SM CLR M03/M08 A2999 RMK AO2 SLP152 T10331078 FZRANO
PASL 240556Z AUTO 00000KT 10SM CLR M01/M09 A2996 RMK AO2 SLP144 T10111094 10017 21011 53014 FZRANO
PASL 240456Z AUTO VRB05KT 10SM CLR 00/M11 A2994 RMK AO2 SLP137 T00001111 FZRANO
PASL 240356Z AUTO 20007KT 10SM BKN050 00/M11 A2993 RMK AO2 SLP134 T00001111 FZRANO
PASL 240256Z AUTO 17005KT 10SM BKN055 00/M11 A2992 RMK AO2 SLP131 T00001111 53008 FZRANO
PASL 240156Z AUTO VRB03KT 10SM OVC055 01/M11 A2991 RMK AO2 SLP127 T00061111 FZRANO
PASL 240056Z AUTO 14005KT 10SM OVC055 01/M12 A2991 RMK AO2 SLP125 T00111117 FZRANO
PASL 232356Z AUTO 00000KT 10SM BKN050 01/M12 A2990 RMK AO2 SLP123 T00061117 10011 21039 51012 FZRANO
PASL 232256Z AUTO 17008KT 10SM SCT050 00/M12 A2989 RMK AO2 SLP119 T00001122 FZRANO
PASL 232156Z AUTO VRB06KT 10SM SCT050 M01/M11 A2988 RMK AO2 SLP117 T10061106 FZRANO
PASL 232056Z AUTO 14005KT 10SM CLR M01/M11 A2987 RMK AO2 SLP111 T10111106 51013 FZRANO
PASL 231856Z AUTO VRB04KT 10SM CLR M01/M10 A2984 RMK AO2 SLP102 T10111100 FZRANO
PASL 231656Z AUTO 03003KT 10SM CLR M08/M10 A2981 RMK AO2 SLP093 T10781100 FZRANO
PASL 231556Z AUTO 03003KT 10SM BKN047 M11/M13 A2980 RMK AO2 SLP088 T11061128 FZRANO
PASL 231456Z AUTO 02003KT 10SM OVC047 M11/M13 A2978 RMK AO2 SLP080 T11111133 51015 FZRANO
PASL 231356Z AUTO 03003KT 10SM OVC047 M11/M13 A2977 RMK AO2 SLP077 T11061128 FZRANO
PASL 231256Z AUTO 00000KT 10SM OVC047 M11/M13 A2975 RMK AO2 SLP071 T11061133 FZRANO
PASL 231156Z AUTO 00000KT 10SM OVC047 M12/M14 A2974 RMK AO2 SLP066 70003 T11171144 11044 21117 53021 FZRANO